Johnson County (6A4)
Johnson County, TN
Field Elevation: 2240
Lat: 36°25.07N  Long: 81°49.51W
CTAF/Unicom Freq: 122.7000
   
    
Weather Advisories
2017-03-30   16:27 Z
Altimeter 30.03" Hg
Wind 210° @ 4 KT
Gusts 15 KT
Visibility 10 SM
Ceiling BKN032 BKN039
Temperature 19° C (66° F)
Dewpoint 12° C (54° F)
Relative Humidity 63%
Density Altitude --
Condensation Altitude 5,900 feet
Wind and Runways
Indicated Runway = 24
Headwind = 4 kt
Crosswind = 2 kt
History
 
 
 
More Info
NOAA Forecast
 
 
About Us
Belfort Instrument
 
 
FAA Disclaimer: The data displayed is for advisory purposes only and is not to be used for flight planning or operations. For official data, please call (not available) to hear the current automated AWOS voice message.
  METAR 6A4 301627Z AUTO 21004G15KT 10 SM BKN032 BKN039 19/12 A3003